createdAt,value
2018-06-18T00:02:26.825Z,5.90
2018-06-18T00:04:55.003Z,6.00
2018-06-18T00:07:23.245Z,5.40
2018-06-18T00:09:51.469Z,6.17
2018-06-18T00:12:19.650Z,6.80
2018-06-18T00:14:47.909Z,6.80
2018-06-18T00:17:16.157Z,6.00
2018-06-18T00:19:45.089Z,4.90
2018-06-18T00:22:16.164Z,5.05
2018-06-18T00:24:45.263Z,5.80
2018-06-18T00:27:13.569Z,5.50
2018-06-18T00:29:41.801Z,4.60
2018-06-18T00:32:10.539Z,6.05
2018-06-18T00:34:38.817Z,5.10
2018-06-18T00:37:07.546Z,5.00
2018-06-18T00:39:35.838Z,5.67
2018-06-18T00:42:04.097Z,4.70
2018-06-18T00:44:32.327Z,5.30
2018-06-18T00:47:00.529Z,5.60
2018-06-18T00:49:28.785Z,5.58
2018-06-18T00:51:56.961Z,5.05
2018-06-18T00:54:25.247Z,5.58
2018-06-18T00:56:53.418Z,4.90
2018-06-18T00:59:21.657Z,5.47
2018-06-18T01:01:49.844Z,5.80
2018-06-18T01:04:18.085Z,5.78
2018-06-18T01:06:46.268Z,5.83
2018-06-18T01:09:14.501Z,6.28
2018-06-18T01:11:42.753Z,6.60
2018-06-18T01:14:10.986Z,5.80
2018-06-18T01:16:39.283Z,5.50
2018-06-18T01:19:07.537Z,5.37
2018-06-18T01:21:35.720Z,5.37
2018-06-18T01:25:12.266Z,5.20
2018-06-18T01:27:40.445Z,5.10
2018-06-18T01:30:08.669Z,5.10
2018-06-18T01:32:36.890Z,5.17
2018-06-18T01:35:05.996Z,5.15
2018-06-18T01:37:34.185Z,5.10
2018-06-18T01:40:02.425Z,5.55
2018-06-18T01:42:30.599Z,4.70
2018-06-18T01:44:58.841Z,5.20
2018-06-18T01:47:27.032Z,5.22
2018-06-18T01:49:55.250Z,5.70
2018-06-18T01:52:23.493Z,5.33
2018-06-18T01:54:51.765Z,5.60
2018-06-18T01:57:19.961Z,5.70
2018-06-18T01:59:48.146Z,5.70
2018-06-18T02:02:16.377Z,5.78
2018-06-18T02:04:44.763Z,5.20
2018-06-18T02:07:13.041Z,5.15
2018-06-18T02:09:41.238Z,4.90
2018-06-18T02:12:09.511Z,5.10
2018-06-18T02:14:37.732Z,5.25
2018-06-18T02:17:05.959Z,5.70
2018-06-18T02:19:34.205Z,5.80
2018-06-18T02:22:02.576Z,5.28
2018-06-18T02:24:30.838Z,5.20
2018-06-18T02:27:04.761Z,6.12
2018-06-18T02:29:38.401Z,5.50
2018-06-18T02:32:12.341Z,5.17
2018-06-18T02:34:45.949Z,4.90
2018-06-18T02:37:19.788Z,4.80
2018-06-18T02:39:53.539Z,5.15
2018-06-18T02:42:21.783Z,5.00
2018-06-18T02:44:50.003Z,4.95
2018-06-18T02:47:18.282Z,5.60
2018-06-18T02:49:46.615Z,4.78
2018-06-18T02:52:14.866Z,5.15
2018-06-18T02:54:43.132Z,4.72
2018-06-18T02:57:12.282Z,5.40
2018-06-18T02:59:40.475Z,5.10
2018-06-18T03:02:08.709Z,5.40
2018-06-18T03:04:36.953Z,5.45
2018-06-18T03:07:05.209Z,5.97
2018-06-18T03:09:33.421Z,5.62
2018-06-18T03:12:01.638Z,5.60
2018-06-18T03:14:29.809Z,5.80
2018-06-18T03:16:58.022Z,6.30
2018-06-18T03:19:31.609Z,6.33
2018-06-18T03:22:05.378Z,6.00
2018-06-18T03:24:38.989Z,5.65
2018-06-18T03:27:12.760Z,6.10
2018-06-18T03:29:47.586Z,6.00
2018-06-18T03:32:17.301Z,5.45
2018-06-18T03:34:45.490Z,5.87
2018-06-18T03:37:16.559Z,6.00
2018-06-18T03:39:44.746Z,4.95
2018-06-18T03:42:12.969Z,5.70
2018-06-18T03:44:45.152Z,5.37
2018-06-18T03:47:23.701Z,5.70
2018-06-18T03:49:51.888Z,5.60
2018-06-18T03:52:20.180Z,5.20
2018-06-18T03:54:49.647Z,6.00
2018-06-18T03:57:18.348Z,5.78
2018-06-18T03:59:46.578Z,5.97
2018-06-18T04:02:29.356Z,5.80
2018-06-18T04:05:03.029Z,5.77
2018-06-18T04:07:41.118Z,5.90
2018-06-18T04:10:15.061Z,5.22
2018-06-18T04:12:43.265Z,4.95
2018-06-18T04:15:11.578Z,5.70
2018-06-18T04:17:39.798Z,5.60
2018-06-18T04:20:08.042Z,5.70
2018-06-18T04:22:36.294Z,5.35
2018-06-18T04:25:04.647Z,5.83
2018-06-18T04:27:32.941Z,5.60
2018-06-18T04:30:01.177Z,5.60
2018-06-18T04:32:29.391Z,5.70
2018-06-18T04:34:59.618Z,6.40
2018-06-18T04:37:27.835Z,6.00
2018-06-18T04:39:56.054Z,6.80
2018-06-18T04:42:29.805Z,7.00
2018-06-18T04:45:03.581Z,6.10
2018-06-18T04:47:37.473Z,5.97
2018-06-18T04:50:11.144Z,5.80
2018-06-18T04:52:39.544Z,5.90
2018-06-18T04:55:07.832Z,6.53
2018-06-18T04:57:36.131Z,6.78
2018-06-18T05:00:22.413Z,6.10
2018-06-18T05:02:50.649Z,5.53
2018-06-18T05:05:18.899Z,5.92
2018-06-18T05:07:50.477Z,6.50
2018-06-18T05:10:24.051Z,7.10
2018-06-18T05:12:52.374Z,5.80
2018-06-18T05:15:23.181Z,6.85
2018-06-18T05:17:51.407Z,5.90
2018-06-18T05:20:19.596Z,6.30
2018-06-18T05:22:47.834Z,6.58
2018-06-18T05:25:16.118Z,6.22
2018-06-18T05:27:44.418Z,6.87
2018-06-18T05:30:15.350Z,5.90
2018-06-18T05:32:43.651Z,5.70
2018-06-18T05:35:12.724Z,5.90
2018-06-18T05:37:55.038Z,5.75
2018-06-18T05:40:23.204Z,6.83
2018-06-18T05:42:51.445Z,5.28
2018-06-18T05:45:19.665Z,5.97
2018-06-18T05:47:47.998Z,5.60
2018-06-18T05:50:16.215Z,5.45
2018-06-18T05:52:44.455Z,5.70
2018-06-18T05:55:14.494Z,5.60
2018-06-18T05:57:42.715Z,4.62
2018-06-18T06:00:11.021Z,5.40
2018-06-18T06:02:39.493Z,4.92
2018-06-18T06:05:07.699Z,5.08
2018-06-18T06:07:35.949Z,5.97
2018-06-18T06:10:04.301Z,5.78
2018-06-18T06:12:32.629Z,5.80
2018-06-18T06:15:00.828Z,5.55
2018-06-18T06:17:29.037Z,5.25
2018-06-18T06:19:57.217Z,6.30
2018-06-18T06:22:25.484Z,5.87
2018-06-18T06:24:53.689Z,5.72
2018-06-18T06:27:21.907Z,5.58
2018-06-18T06:29:50.118Z,5.10
2018-06-18T06:32:18.352Z,5.60
2018-06-18T06:34:52.646Z,5.40
2018-06-18T06:37:20.933Z,6.17
2018-06-18T06:39:49.112Z,5.00
2018-06-18T06:42:18.429Z,4.65
2018-06-18T06:44:46.660Z,5.10
2018-06-18T06:47:15.108Z,4.15
2018-06-18T06:49:43.507Z,4.25
2018-06-18T06:52:11.710Z,5.72
2018-06-18T06:54:39.930Z,5.12
2018-06-18T06:57:08.118Z,4.70
2018-06-18T06:59:36.362Z,4.15
2018-06-18T07:02:04.553Z,4.22
2018-06-18T07:04:32.837Z,4.60
2018-06-18T07:07:01.031Z,3.70
2018-06-18T07:09:29.272Z,4.50
2018-06-18T07:11:57.470Z,4.00
2018-06-18T07:14:25.698Z,4.20
2018-06-18T07:16:53.904Z,4.50
2018-06-18T07:19:22.174Z,3.70
2018-06-18T07:21:50.359Z,3.60
2018-06-18T07:24:18.582Z,4.10
2018-06-18T07:26:46.786Z,3.90
2018-06-18T07:29:15.014Z,4.10
2018-06-18T07:31:43.205Z,4.80
2018-06-18T07:34:11.410Z,4.20
2018-06-18T07:36:39.673Z,3.87
2018-06-18T07:39:08.366Z,4.83
2018-06-18T07:41:36.595Z,3.92
2018-06-18T07:44:04.893Z,4.40
2018-06-18T07:46:33.066Z,3.92
2018-06-18T07:49:01.282Z,4.70
2018-06-18T07:51:29.543Z,4.72
2018-06-18T07:53:57.733Z,4.70
2018-06-18T07:56:25.939Z,5.12
2018-06-18T07:58:54.152Z,5.33
2018-06-18T08:01:22.352Z,4.40
2018-06-18T08:03:50.577Z,3.92
2018-06-18T08:06:18.856Z,4.50
2018-06-18T08:08:47.108Z,4.60
2018-06-18T08:11:15.346Z,4.72
2018-06-18T08:13:43.538Z,4.78
2018-06-18T08:16:11.770Z,5.00
2018-06-18T08:18:40.010Z,4.70
2018-06-18T08:21:08.270Z,4.50
2018-06-18T08:23:36.465Z,4.70
2018-06-18T08:26:04.734Z,4.20
2018-06-18T08:28:32.933Z,4.83
2018-06-18T08:31:01.216Z,4.65
2018-06-18T08:33:29.417Z,5.08
2018-06-18T08:35:57.722Z,4.20
2018-06-18T08:38:25.906Z,4.40
2018-06-18T08:40:54.137Z,4.40
2018-06-18T08:43:29.021Z,4.55
2018-06-18T08:45:57.237Z,4.72
2018-06-18T08:48:30.952Z,5.00
2018-06-18T08:51:04.701Z,5.60
2018-06-18T08:53:38.539Z,4.70
2018-06-18T08:56:12.319Z,4.80
2018-06-18T08:58:46.006Z,4.90
2018-06-18T09:01:19.826Z,5.20
2018-06-18T09:03:52.202Z,5.10
2018-06-18T09:06:20.531Z,5.55
2018-06-18T09:08:49.481Z,5.17
2018-06-18T09:11:18.865Z,5.20
2018-06-18T09:13:47.047Z,4.80
2018-06-18T09:16:15.346Z,4.90
2018-06-18T09:18:43.538Z,5.20
2018-06-18T09:21:11.786Z,5.12
2018-06-18T09:23:40.011Z,4.78
2018-06-18T09:26:08.277Z,5.08
2018-06-18T09:28:36.453Z,5.10
2018-06-18T09:31:04.733Z,5.90
2018-06-18T09:33:32.967Z,5.00
2018-06-18T09:36:01.234Z,5.60
2018-06-18T09:38:29.440Z,5.30
2018-06-18T09:40:57.732Z,4.80
2018-06-18T09:43:25.908Z,4.50
2018-06-18T09:45:54.136Z,5.00
2018-06-18T09:48:26.813Z,5.58
2018-06-18T09:51:00.461Z,4.65
2018-06-18T09:53:34.078Z,4.45
2018-06-18T09:56:07.709Z,4.80
2018-06-18T09:58:41.327Z,4.15
2018-06-18T10:01:42.832Z,5.00
2018-06-18T10:04:11.124Z,4.60
2018-06-18T10:06:40.021Z,4.60
2018-06-18T10:09:10.518Z,4.12
2018-06-18T10:11:38.769Z,4.20
2018-06-18T10:14:09.771Z,4.60
2018-06-18T10:16:37.993Z,4.87
2018-06-18T10:19:06.294Z,4.10
2018-06-18T10:21:34.500Z,4.08
2018-06-18T10:24:02.730Z,4.20
2018-06-18T10:26:30.941Z,3.98
2018-06-18T10:28:59.182Z,4.58
2018-06-18T10:31:27.352Z,4.80
2018-06-18T10:34:01.002Z,4.60
2018-06-18T10:36:34.781Z,4.60
2018-06-18T10:39:08.473Z,3.50
2018-06-18T10:41:42.231Z,3.87
2018-06-18T10:44:10.470Z,4.00
2018-06-18T10:46:38.654Z,4.83
2018-06-18T10:49:06.850Z,4.40
2018-06-18T10:51:35.022Z,4.30
2018-06-18T10:54:03.263Z,4.90
2018-06-18T10:56:31.426Z,4.85
2018-06-18T10:58:59.703Z,4.80
2018-06-18T11:01:30.628Z,4.00
2018-06-18T11:03:59.178Z,5.20
2018-06-18T11:06:37.270Z,5.30
2018-06-18T11:09:10.785Z,5.15
2018-06-18T11:11:38.956Z,4.50
2018-06-18T11:14:07.185Z,4.80
2018-06-18T11:16:35.557Z,5.03
2018-06-18T11:19:09.096Z,5.03
2018-06-18T11:21:42.761Z,5.15
2018-06-18T11:24:16.401Z,5.00
2018-06-18T11:26:50.284Z,5.22
2018-06-18T11:29:18.466Z,4.40
2018-06-18T11:31:46.665Z,4.90
2018-06-18T11:34:14.938Z,5.70
2018-06-18T11:36:43.216Z,4.80
2018-06-18T11:39:11.445Z,4.80
2018-06-18T11:41:39.721Z,5.40
2018-06-18T11:44:07.927Z,4.83
2018-06-18T11:46:36.257Z,5.33
2018-06-18T11:49:04.616Z,5.08
2018-06-18T11:51:32.848Z,4.70
2018-06-18T11:54:00.779Z,5.20
2018-06-18T11:56:29.157Z,3.77
2018-06-18T11:59:02.757Z,5.00
2018-06-18T12:01:36.378Z,5.40
2018-06-18T12:04:10.137Z,4.62
2018-06-18T12:06:43.743Z,4.10
2018-06-18T12:09:17.485Z,3.90
2018-06-18T12:11:46.442Z,4.53
2018-06-18T12:14:15.281Z,3.90
2018-06-18T12:16:43.601Z,4.67
2018-06-18T12:19:11.843Z,4.67
2018-06-18T12:21:40.113Z,4.80
2018-06-18T12:24:08.701Z,5.28
2018-06-18T12:26:37.067Z,4.20
2018-06-18T12:29:05.298Z,4.78
2018-06-18T12:31:33.564Z,4.47
2018-06-18T12:34:01.769Z,4.40
2018-06-18T12:36:30.057Z,4.22
2018-06-18T12:38:58.301Z,4.30
2018-06-18T12:41:26.564Z,4.10
2018-06-18T12:43:57.533Z,4.50
2018-06-18T12:46:31.362Z,3.67
2018-06-18T12:49:05.285Z,3.42
2018-06-18T12:51:39.048Z,3.45
2018-06-18T12:54:24.530Z,3.67
2018-06-18T12:56:59.896Z,3.97
2018-06-18T12:59:28.189Z,3.75
2018-06-18T13:02:02.686Z,3.80
2018-06-18T13:04:33.126Z,3.87
2018-06-18T13:07:01.414Z,3.73
2018-06-18T13:09:29.721Z,4.00
2018-06-18T13:11:57.985Z,4.17
2018-06-18T13:14:26.183Z,3.87
2018-06-18T13:16:54.465Z,3.42
2018-06-18T13:19:22.678Z,3.02
2018-06-18T13:21:50.888Z,3.77
2018-06-18T13:24:19.094Z,3.45
2018-06-18T13:26:47.435Z,3.67
2018-06-18T13:29:15.644Z,4.12
2018-06-18T13:31:43.940Z,3.45
2018-06-18T13:34:12.137Z,3.50
2018-06-18T13:36:40.446Z,3.60
2018-06-18T13:39:14.401Z,3.40
2018-06-18T13:41:48.366Z,3.70
2018-06-18T13:44:22.034Z,3.25
2018-06-18T13:47:58.730Z,3.70
2018-06-18T13:50:26.930Z,3.33
2018-06-18T13:52:55.173Z,3.80
2018-06-18T13:55:23.427Z,3.60
2018-06-18T13:57:51.760Z,3.80
2018-06-18T14:00:20.130Z,3.20
2018-06-18T14:02:48.733Z,3.17
2018-06-18T14:05:17.230Z,3.20
2018-06-18T14:07:45.521Z,3.70
2018-06-18T14:10:13.750Z,3.50
2018-06-18T14:12:41.993Z,3.12
2018-06-18T14:15:10.216Z,3.40
2018-06-18T14:17:38.558Z,3.20
2018-06-18T14:20:12.333Z,3.80
2018-06-18T14:22:40.658Z,4.05
2018-06-18T14:25:08.889Z,3.00
2018-06-18T14:27:37.214Z,3.40
2018-06-18T14:30:11.076Z,3.80
2018-06-18T14:32:45.036Z,3.37
2018-06-18T14:35:18.888Z,2.90
2018-06-18T14:37:52.762Z,2.92
2018-06-18T14:40:21.586Z,2.77
2018-06-18T14:42:49.814Z,2.83
2018-06-18T14:45:18.128Z,3.02
2018-06-18T14:47:46.405Z,3.33
2018-06-18T14:50:14.665Z,3.40
2018-06-18T14:52:42.988Z,2.80
2018-06-18T14:55:12.317Z,3.20
2018-06-18T14:57:40.566Z,3.02
2018-06-18T15:00:17.134Z,3.08
2018-06-18T15:02:45.392Z,3.22
2018-06-18T15:05:13.760Z,2.92
2018-06-18T15:07:41.975Z,3.50
2018-06-18T15:10:11.262Z,3.10
2018-06-18T15:12:46.138Z,3.35
2018-06-18T15:15:19.809Z,3.10
2018-06-18T15:17:48.320Z,2.98
2018-06-18T15:20:16.753Z,3.17
2018-06-18T15:23:03.424Z,2.92
2018-06-18T15:25:34.817Z,2.80
2018-06-18T15:28:03.095Z,3.00
2018-06-18T15:30:31.750Z,2.90
2018-06-18T15:33:00.042Z,2.50
2018-06-18T15:35:28.481Z,3.25
2018-06-18T15:37:56.944Z,3.30
2018-06-18T15:40:25.326Z,3.70
2018-06-18T15:42:53.833Z,3.17
2018-06-18T15:45:22.296Z,3.40
2018-06-18T15:47:50.605Z,3.50
2018-06-18T15:50:18.824Z,3.00
2018-06-18T15:52:47.014Z,3.75
2018-06-18T15:55:15.261Z,2.93
2018-06-18T15:57:43.485Z,2.90
2018-06-18T16:00:11.731Z,3.40
2018-06-18T16:02:39.958Z,3.40
2018-06-18T16:05:08.210Z,3.22
2018-06-18T16:07:36.637Z,3.40
2018-06-18T16:10:05.405Z,2.80
2018-06-18T16:12:33.618Z,3.47
2018-06-18T16:15:02.362Z,3.60
2018-06-18T16:17:31.067Z,3.60
2018-06-18T16:19:59.285Z,3.15
2018-06-18T16:22:27.482Z,3.65
2018-06-18T16:24:55.779Z,7.50
2018-06-18T16:27:24.006Z,5.25
2018-06-18T16:29:52.217Z,2.83
2018-06-18T16:32:20.497Z,3.00
2018-06-18T16:34:48.814Z,3.33
2018-06-18T16:37:17.070Z,3.22
2018-06-18T16:39:45.283Z,3.42
2018-06-18T16:42:13.578Z,7.30
2018-06-18T16:44:41.798Z,3.90
2018-06-18T16:47:10.119Z,13.32
2018-06-18T16:49:38.337Z,8.30
2018-06-18T16:52:06.690Z,4.80
2018-06-18T16:54:34.895Z,3.00
2018-06-18T16:57:03.226Z,3.00
2018-06-18T16:59:31.422Z,4.10
2018-06-18T17:01:59.660Z,3.27
2018-06-18T17:04:27.919Z,2.70
2018-06-18T17:06:56.330Z,3.20
2018-06-18T17:09:24.550Z,3.27
2018-06-18T17:11:52.801Z,3.20
2018-06-18T17:14:21.017Z,3.25
2018-06-18T17:16:49.068Z,2.90
2018-06-18T17:19:17.316Z,2.80
2018-06-18T17:21:45.573Z,3.02
2018-06-18T17:24:13.781Z,3.02
2018-06-18T17:26:42.066Z,3.10
2018-06-18T17:29:10.282Z,3.10
2018-06-18T17:31:38.531Z,2.83
2018-06-18T17:34:06.765Z,3.20
2018-06-18T17:36:35.022Z,2.98
2018-06-18T17:39:04.379Z,3.10
2018-06-18T17:41:32.634Z,3.45
2018-06-18T17:44:01.053Z,2.40
2018-06-18T17:46:29.425Z,2.77
2018-06-18T17:48:57.802Z,2.70
2018-06-18T17:51:26.085Z,2.80
2018-06-18T17:53:54.404Z,2.50
2018-06-18T17:56:22.651Z,2.40
2018-06-18T17:58:50.893Z,2.77
2018-06-18T18:01:19.165Z,3.70
2018-06-18T18:03:47.396Z,3.15
2018-06-18T18:06:15.630Z,3.53
2018-06-18T18:08:43.935Z,3.15
2018-06-18T18:11:12.303Z,3.00
2018-06-18T18:13:40.647Z,2.80
2018-06-18T18:16:08.870Z,3.25
2018-06-18T18:18:37.101Z,2.77
2018-06-18T18:21:05.366Z,3.10
2018-06-18T18:23:33.841Z,3.20
2018-06-18T18:26:02.101Z,3.45
2018-06-18T18:28:30.486Z,3.30
2018-06-18T18:30:58.711Z,3.65
2018-06-18T18:33:27.050Z,3.40
2018-06-18T18:35:55.259Z,3.80
2018-06-18T18:38:23.504Z,3.50
2018-06-18T18:40:51.761Z,2.90
2018-06-18T18:43:20.020Z,3.70
2018-06-18T18:45:48.221Z,3.30
2018-06-18T18:48:16.473Z,3.62
2018-06-18T18:50:44.777Z,3.80
2018-06-18T18:53:13.100Z,3.80
2018-06-18T18:55:55.958Z,3.60
2018-06-18T18:58:46.911Z,3.40
2018-06-18T19:01:15.440Z,4.78
2018-06-18T19:03:44.770Z,4.70
2018-06-18T19:06:12.994Z,4.23
2018-06-18T19:08:40.977Z,4.40
2018-06-18T19:11:09.265Z,3.77
2018-06-18T19:13:38.205Z,4.10
2018-06-18T19:16:07.109Z,4.47
2018-06-18T19:18:38.637Z,4.47
2018-06-18T19:21:10.376Z,4.50
2018-06-18T19:23:39.058Z,3.37
2018-06-18T19:26:07.653Z,4.42
2018-06-18T19:28:37.221Z,3.92
2018-06-18T19:31:22.993Z,3.90
2018-06-18T19:34:02.069Z,3.40
2018-06-18T19:36:30.319Z,3.80
2018-06-18T19:38:58.641Z,3.80
2018-06-18T19:41:26.885Z,3.50
2018-06-18T19:43:55.166Z,4.20
2018-06-18T19:46:30.409Z,4.22
2018-06-18T19:49:03.106Z,4.35
2018-06-18T19:51:31.380Z,6.90
2018-06-18T19:54:00.540Z,8.73
2018-06-18T19:56:28.918Z,7.40
2018-06-18T19:58:57.176Z,6.47
2018-06-18T20:01:25.498Z,5.78
2018-06-18T20:03:53.795Z,6.47
2018-06-18T20:06:22.054Z,5.45
2018-06-18T20:08:50.622Z,5.55
2018-06-18T20:11:19.469Z,5.80
2018-06-18T20:13:47.817Z,5.10
2018-06-18T20:16:16.083Z,5.83
2018-06-18T20:18:44.568Z,4.92
2018-06-18T20:21:12.993Z,4.40
2018-06-18T20:23:41.301Z,4.45
2018-06-18T20:26:12.562Z,4.30
2018-06-18T20:28:40.778Z,5.37
2018-06-18T20:31:10.192Z,5.10
2018-06-18T20:33:44.324Z,5.00
2018-06-18T20:36:14.096Z,4.60
2018-06-18T20:38:42.391Z,4.90
2018-06-18T20:41:10.825Z,6.00
2018-06-18T20:43:49.093Z,6.17
2018-06-18T20:46:17.647Z,5.83
2018-06-18T20:48:45.887Z,6.95
2018-06-18T20:51:14.243Z,6.20
2018-06-18T20:53:42.643Z,6.70
2018-06-18T20:56:10.930Z,5.83
2018-06-18T20:58:39.213Z,6.50
2018-06-18T21:01:07.808Z,6.95
2018-06-18T21:03:36.460Z,7.40
2018-06-18T21:06:04.861Z,7.05
2018-06-18T21:08:33.167Z,8.50
2018-06-18T21:11:01.536Z,8.37
2018-06-18T21:13:29.827Z,12.40
2018-06-18T21:15:58.045Z,13.77
2018-06-18T21:18:26.278Z,14.45
2018-06-18T21:20:54.530Z,14.90
2018-06-18T21:23:22.771Z,11.60
2018-06-18T21:25:50.721Z,9.63
2018-06-18T21:28:19.013Z,8.07
2018-06-18T21:30:47.569Z,5.40
2018-06-18T21:33:16.218Z,5.50
2018-06-18T21:35:44.494Z,4.80
2018-06-18T21:38:12.769Z,5.00
2018-06-18T21:40:41.116Z,4.20
2018-06-18T21:43:09.361Z,4.40
2018-06-18T21:45:37.877Z,4.90
2018-06-18T21:48:06.422Z,4.50
2018-06-18T21:50:34.729Z,4.70
2018-06-18T21:53:02.969Z,5.30
2018-06-18T21:55:31.230Z,5.40
2018-06-18T21:57:59.827Z,5.25
2018-06-18T22:00:32.620Z,5.75
2018-06-18T22:03:00.913Z,5.60
2018-06-18T22:05:29.319Z,6.80
2018-06-18T22:07:57.677Z,6.47
2018-06-18T22:10:26.025Z,6.50
2018-06-18T22:12:54.685Z,5.45
2018-06-18T22:15:22.979Z,4.90
2018-06-18T22:17:51.268Z,5.42
2018-06-18T22:20:19.545Z,5.08
2018-06-18T22:22:47.745Z,4.70
2018-06-18T22:25:15.993Z,4.78
2018-06-18T22:27:44.253Z,5.30
2018-06-18T22:30:12.500Z,5.25
2018-06-18T22:32:40.729Z,5.08
2018-06-18T22:35:08.957Z,4.83
2018-06-18T22:37:37.230Z,4.85
2018-06-18T22:40:05.475Z,4.60
2018-06-18T22:42:33.702Z,4.72
2018-06-18T22:45:01.912Z,4.53
2018-06-18T22:47:30.136Z,4.90
2018-06-18T22:49:58.408Z,4.62
2018-06-18T22:52:26.617Z,5.75
2018-06-18T22:54:55.067Z,5.20
2018-06-18T22:57:23.298Z,4.90
2018-06-18T22:59:51.614Z,4.80
2018-06-18T23:02:22.597Z,5.50
2018-06-18T23:04:50.859Z,5.50
2018-06-18T23:07:19.158Z,5.55
2018-06-18T23:09:47.342Z,5.80
2018-06-18T23:12:16.621Z,5.60
2018-06-18T23:14:45.297Z,5.00
2018-06-18T23:17:13.663Z,5.10
2018-06-18T23:19:41.920Z,4.60
2018-06-18T23:22:10.202Z,4.70
2018-06-18T23:24:38.432Z,5.80
2018-06-18T23:27:07.209Z,4.95
2018-06-18T23:29:35.468Z,5.25
2018-06-18T23:32:03.782Z,4.75
2018-06-18T23:34:32.009Z,4.60
2018-06-18T23:37:00.189Z,5.22
2018-06-18T23:39:28.428Z,5.30
2018-06-18T23:41:57.501Z,5.20
2018-06-18T23:44:25.793Z,5.75
2018-06-18T23:46:54.065Z,5.50
2018-06-18T23:49:22.229Z,6.40
2018-06-18T23:51:50.461Z,5.28
2018-06-18T23:54:18.648Z,5.80
2018-06-18T23:56:46.868Z,5.60
2018-06-18T23:59:14.893Z,6.95
